| time (UTC) | temp C | wind direction | speed KPH | gust KPH | rain 1hr cm | rain 24hr cm | rain mn cm | humidity % | barometer mb |
| 20260503185015 | 29 | 104 | 0.0 | 1.6 | 0.00 | 0.00 | 0.00 | 38 | 1011.2 |
| 20260503184512 | 28 | 277 | 0.0 | 0.0 | 0.00 | 0.00 | 0.00 | 41 | 1011.2 |
| 20260503184008 | 28 | 231 | 0.0 | 0.0 | 0.00 | 0.00 | 0.00 | 41 | 1011.5 |
| 20260503183505 | 28 | 274 | 0.0 | 1.6 | 0.00 | 0.00 | 0.00 | 40 | 1011.3 |
| 20260503183001 | 28 | 240 | 1.6 | 1.6 | 0.00 | 0.00 | 0.00 | 40 | 1011.6 |
| 20260503182500 | 28 | 358 | 0.0 | 1.6 | 0.00 | 0.00 | 0.00 | 40 | 1011.5 |
| 20260503181958 | 27 | 232 | 0.0 | 3.2 | 0.00 | 0.00 | 0.00 | 40 | 1011.6 |
| 20260503181455 | 27 | 224 | 1.6 | 1.6 | 0.00 | 0.00 | 0.00 | 41 | 1011.6 |
| 20260503180950 | 26 | 239 | 0.0 | 1.6 | 0.00 | 0.00 | 0.00 | 43 | 1011.6 |
| 20260503180449 | 26 | 248 | 0.0 | 1.6 | 0.00 | 0.00 | 0.00 | 44 | 1011.8 |
| 20260503175945 | 26 | 248 | 1.6 | 1.6 | 0.00 | 0.00 | 0.00 | 41 | 1011.9 |
| 20260503175443 | 26 | 256 | 0.0 | 0.0 | 0.00 | 0.00 | 0.00 | 45 | 1011.9 |
| 20260503174939 | 26 | 260 | 1.6 | 1.6 | 0.00 | 0.00 | 0.00 | 44 | 1011.8 |
| 20260503174438 | 25 | 44 | 0.0 | 1.6 | 0.00 | 0.00 | 0.00 | 48 | 1011.9 |
| 20260503173938 | 25 | 269 | 0.0 | 3.2 | 0.00 | 0.00 | 0.00 | 45 | 1012.0 |
| 20260503173434 | 25 | 274 | 0.0 | 1.6 | 0.00 | 0.00 | 0.00 | 47 | 1012.0 |
| 20260503172931 | 25 | 241 | 0.0 | 1.6 | 0.00 | 0.00 | 0.00 | 48 | 1012.0 |
| 20260503172428 | 23 | 267 | 0.0 | 0.0 | 0.00 | 0.00 | 0.00 | 49 | 1012.0 |
| 20260503171924 | 23 | 267 | 0.0 | 1.6 | 0.00 | 0.00 | 0.00 | 50 | 1012.0 |
| 20260503171421 | 23 | 287 | 0.0 | 1.6 | 0.00 | 0.00 | 0.00 | 51 | 1011.9 |
| 20260503170919 | 23 | 60 | 0.0 | 3.2 | 0.00 | 0.00 | 0.00 | 51 | 1012.0 |
| 20260503170415 | 23 | 27 | 0.0 | 1.6 | 0.00 | 0.00 | 0.00 | 53 | 1012.1 |
| 20260503150807 | 16 | 99 | 0.0 | 0.0 | 0.00 | 0.00 | 0.00 | 79 | 1012.6 |
| 20260503150303 | 15 | 98 | 0.0 | 0.0 | 0.00 | 0.00 | 0.00 | 85 | 1012.5 |
| 20260503140228 | 12 | 347 | 0.0 | 0.0 | 0.00 | 0.00 | 0.00 | 90 | 1012.3 |
| 20260503131157 | 11 | 339 | 0.0 | 0.0 | 0.00 | 0.00 | 0.00 | 91 | 1012.0 |
| 20260503130655 | 11 | 339 | 0.0 | 0.0 | 0.00 | 0.00 | 0.00 | 91 | 1012.0 |
| 20260503130152 | 11 | 340 | 0.0 | 0.0 | 0.00 | 0.00 | 0.00 | 91 | 1012.0 |
| 20260503120117 | 12 | 2 | 0.0 | 0.0 | 0.00 | 0.00 | 0.00 | 89 | 1012.1 |
| 20260503110545 | 12 | 24 | 0.0 | 0.0 | 0.00 | 0.00 | 0.00 | 89 | 1012.3 |
| 20260503090432 | 13 | 24 | 0.0 | 0.0 | 0.00 | 0.00 | 0.00 | 89 | 1012.8 |
| 20260503081358 | 13 | 24 | 0.0 | 0.0 | 0.00 | 0.00 | 0.00 | 88 | 1012.7 |
| 20260503080855 | 13 | 24 | 0.0 | 0.0 | 0.00 | 0.00 | 0.00 | 88 | 1012.7 |
| 20260503080352 | 13 | 24 | 0.0 | 0.0 | 0.00 | 0.00 | 0.00 | 88 | 1012.8 |
| 20260503072828 | 13 | 24 | 0.0 | 0.0 | 0.00 | 0.00 | 0.00 | 87 | 1012.7 |
| 20260503072325 | 13 | 24 | 0.0 | 0.0 | 0.00 | 0.00 | 0.00 | 86 | 1012.8 |
| 20260503071821 | 13 | 25 | 0.0 | 0.0 | 0.00 | 0.00 | 0.00 | 86 | 1012.8 |
| 20260503071319 | 13 | 24 | 0.0 | 0.0 | 0.00 | 0.00 | 0.00 | 86 | 1012.7 |
| 20260503070815 | 14 | 24 | 0.0 | 0.0 | 0.00 | 0.00 | 0.00 | 86 | 1012.7 |
| 20260503070313 | 14 | 24 | 0.0 | 0.0 | 0.00 | 0.00 | 0.00 | 86 | 1012.9 |
| 20260503060244 | 15 | 91 | 0.0 | 0.0 | 0.00 | 0.03 | 0.03 | 83 | 1013.3 |
| 20260503054731 | 15 | 92 | 0.0 | 0.0 | 0.00 | 0.03 | 0.03 | 81 | 1013.0 |
| 20260503054228 | 15 | 91 | 0.0 | 0.0 | 0.00 | 0.03 | 0.03 | 81 | 1013.0 |
| 20260503053726 | 15 | 164 | 0.0 | 0.0 | 0.00 | 0.03 | 0.03 | 80 | 1012.9 |
| 20260503053225 | 16 | 164 | 0.0 | 0.0 | 0.00 | 0.03 | 0.03 | 79 | 1012.7 |
| 20260503052720 | 16 | 97 | 0.0 | 0.0 | 0.00 | 0.03 | 0.03 | 78 | 1012.8 |
| 20260503052217 | 16 | 300 | 0.0 | 0.0 | 0.00 | 0.03 | 0.03 | 77 | 1012.6 |
| 20260503051712 | 16 | 298 | 0.0 | 0.0 | 0.00 | 0.03 | 0.03 | 77 | 1012.7 |
| 20260503051210 | 16 | 14 | 0.0 | 0.0 | 0.00 | 0.03 | 0.03 | 76 | 1012.8 |
| 20260503050707 | 16 | 297 | 0.0 | 0.0 | 0.00 | 0.03 | 0.03 | 75 | 1012.8 |
| 20260503050203 | 17 | 359 | 0.0 | 1.6 | 0.00 | 0.03 | 0.03 | 75 | 1012.8 |
| 20260503045701 | 17 | 358 | 0.0 | 0.0 | 0.00 | 0.03 | 0.03 | 74 | 1012.9 |
| 20260503045158 | 17 | 72 | 0.0 | 0.0 | 0.00 | 0.03 | 0.03 | 74 | 1012.9 |
| 20260503044654 | 17 | 72 | 0.0 | 0.0 | 0.00 | 0.03 | 0.03 | 73 | 1013.3 |
| 20260503044152 | 17 | 65 | 0.0 | 1.6 | 0.00 | 0.03 | 0.03 | 73 | 1012.9 |
| 20260503043649 | 17 | 286 | 0.0 | 0.0 | 0.00 | 0.03 | 0.03 | 73 | 1012.7 |
| 20260503043146 | 17 | 279 | 0.0 | 1.6 | 0.00 | 0.03 | 0.03 | 73 | 1012.7 |
| 20260503042642 | 17 | 283 | 0.0 | 1.6 | 0.00 | 0.03 | 0.03 | 73 | 1012.5 |
| 20260503042138 | 16 | 172 | 0.0 | 3.2 | 0.00 | 0.03 | 0.03 | 74 | 1012.5 |
| 20260503041635 | 16 | 308 | 0.0 | 0.0 | 0.00 | 0.03 | 0.03 | 76 | 1012.6 |
| 20260503041133 | 16 | 22 | 0.0 | 0.0 | 0.00 | 0.03 | 0.03 | 76 | 1012.8 |
| 20260503040630 | 16 | 19 | 0.0 | 0.0 | 0.00 | 0.03 | 0.03 | 78 | 1012.6 |
| 20260503040127 | 16 | 19 | 0.0 | 0.0 | 0.00 | 0.03 | 0.03 | 77 | 1012.8 |
| 20260503035623 | 16 | 19 | 0.0 | 0.0 | 0.00 | 0.03 | 0.03 | 77 | 1012.8 |
| 20260503035121 | 16 | 19 | 0.0 | 0.0 | 0.00 | 0.03 | 0.03 | 77 | 1012.7 |
| 20260503034619 | 16 | 19 | 0.0 | 0.0 | 0.00 | 0.03 | 0.03 | 77 | 1012.9 |
| 20260503034116 | 16 | 24 | 0.0 | 0.0 | 0.00 | 0.03 | 0.03 | 76 | 1012.8 |
| 20260503033613 | 16 | 24 | 0.0 | 0.0 | 0.00 | 0.03 | 0.03 | 76 | 1012.8 |
| 20260503033111 | 17 | 24 | 0.0 | 0.0 | 0.00 | 0.03 | 0.03 | 76 | 1012.7 |
| 20260503032609 | 17 | 24 | 0.0 | 0.0 | 0.00 | 0.03 | 0.03 | 75 | 1012.5 |
| 20260503032107 | 17 | 24 | 0.0 | 0.0 | 0.00 | 0.03 | 0.03 | 74 | 1012.4 |
| 20260503031604 | 17 | 34 | 0.0 | 0.0 | 0.00 | 0.03 | 0.03 | 74 | 1012.6 |
| 20260503031101 | 17 | 15 | 0.0 | 0.0 | 0.00 | 0.03 | 0.03 | 73 | 1012.3 |
| 20260503030557 | 17 | 16 | 0.0 | 0.0 | 0.00 | 0.03 | 0.03 | 73 | 1012.1 |
| 20260503030054 | 17 | 31 | 0.0 | 1.6 | 0.00 | 0.03 | 0.03 | 72 | 1012.5 |
| 20260503025551 | 17 | 327 | 0.0 | 0.0 | 0.00 | 0.03 | 0.03 | 71 | 1012.7 |
| 20260503025049 | 17 | 13 | 0.0 | 1.6 | 0.00 | 0.03 | 0.03 | 71 | 1012.3 |
| 20260503024544 | 17 | 291 | 0.0 | 0.0 | 0.00 | 0.03 | 0.03 | 71 | 1012.7 |
| 20260503024042 | 17 | 291 | 0.0 | 0.0 | 0.00 | 0.03 | 0.03 | 71 | 1012.5 |
| 20260503023538 | 18 | 270 | 0.0 | 3.2 | 0.00 | 0.03 | 0.03 | 70 | 1012.8 |
| 20260503023036 | 18 | 212 | 0.0 | 1.6 | 0.00 | 0.03 | 0.03 | 70 | 1013.0 |
| 20260503022532 | 18 | 286 | 0.0 | 3.2 | 0.00 | 0.03 | 0.03 | 70 | 1013.0 |
| 20260503022027 | 18 | 299 | 3.2 | 3.2 | 0.00 | 0.03 | 0.03 | 69 | 1013.0 |
| 20260503021524 | 18 | 47 | 1.6 | 4.8 | 0.00 | 0.03 | 0.03 | 69 | 1013.0 |
| 20260503021021 | 18 | 345 | 0.0 | 1.6 | 0.00 | 0.03 | 0.03 | 68 | 1012.9 |
| 20260503020518 | 19 | 292 | 0.0 | 3.2 | 0.00 | 0.03 | 0.03 | 67 | 1013.0 |
| 20260503020015 | 20 | 110 | 3.2 | 3.2 | 0.00 | 0.03 | 0.03 | 65 | 1013.0 |
| 20260503015511 | 20 | 60 | 1.6 | 1.6 | 0.00 | 0.03 | 0.03 | 64 | 1012.7 |
| 20260503015008 | 20 | 274 | 1.6 | 1.6 | 0.00 | 0.03 | 0.03 | 63 | 1012.2 |
| 20260503014504 | 20 | 36 | 0.0 | 1.6 | 0.00 | 0.03 | 0.03 | 63 | 1012.1 |
| 20260503014003 | 20 | 348 | 0.0 | 1.6 | 0.00 | 0.03 | 0.03 | 62 | 1012.1 |
| 20260503013459 | 20 | 262 | 0.0 | 0.0 | 0.00 | 0.03 | 0.03 | 63 | 1012.0 |
| 20260503012956 | 20 | 173 | 0.0 | 1.6 | 0.00 | 0.03 | 0.03 | 63 | 1012.0 |
| 20260503012455 | 20 | 36 | 0.0 | 3.2 | 0.00 | 0.03 | 0.03 | 63 | 1012.0 |
| 20260503011950 | 20 | 314 | 0.0 | 0.0 | 0.00 | 0.03 | 0.03 | 63 | 1011.9 |
| 20260503011447 | 20 | 274 | 3.2 | 3.2 | 0.00 | 0.03 | 0.03 | 61 | 1011.9 |
| 20260503010944 | 20 | 8 | 0.0 | 1.6 | 0.00 | 0.03 | 0.03 | 62 | 1011.9 |
| 20260503010441 | 21 | 282 | 0.0 | 3.2 | 0.00 | 0.03 | 0.03 | 59 | 1011.9 |
| 20260503005938 | 21 | 289 | 1.6 | 1.6 | 0.00 | 0.03 | 0.03 | 59 | 1011.8 |
| 20260503005436 | 22 | 266 | 0.0 | 1.6 | 0.00 | 0.03 | 0.03 | 59 | 1011.9 |
| 20260503004932 | 22 | 243 | 0.0 | 0.0 | 0.00 | 0.03 | 0.03 | 57 | 1011.9 |
| 20260503004429 | 22 | 271 | 0.0 | 0.0 | 0.00 | 0.03 | 0.03 | 59 | 1011.9 |
| 20260503003927 | 22 | 276 | 1.6 | 3.2 | 0.00 | 0.03 | 0.03 | 55 | 1011.9 |
| 20260503003423 | 22 | 297 | 0.0 | 3.2 | 0.00 | 0.03 | 0.03 | 56 | 1012.0 |
| 20260503002921 | 22 | 200 | 1.6 | 1.6 | 0.00 | 0.03 | 0.03 | 55 | 1011.8 |
| 20260503002418 | 22 | 279 | 1.6 | 3.2 | 0.00 | 0.03 | 0.03 | 54 | 1011.9 |
| 20260503001914 | 22 | 289 | 0.0 | 1.6 | 0.00 | 0.03 | 0.03 | 56 | 1011.9 |
| 20260503001410 | 22 | 268 | 0.0 | 3.2 | 0.00 | 0.03 | 0.03 | 54 | 1011.7 |
| 20260503000908 | 23 | 310 | 3.2 | 3.2 | 0.00 | 0.03 | 0.03 | 53 | 1011.9 |
| 20260503000407 | 23 | 269 | 1.6 | 4.8 | 0.00 | 0.03 | 0.03 | 52 | 1012.0 |
| 20260502235902 | 23 | 285 | 0.0 | 3.2 | 0.00 | 0.03 | 0.03 | 54 | 1011.9 |
| 20260502235359 | 23 | 184 | 1.6 | 1.6 | 0.00 | 0.03 | 0.03 | 51 | 1011.9 |
| 20260502234856 | 23 | 279 | 0.0 | 1.6 | 0.00 | 0.03 | 0.03 | 52 | 1012.1 |
| 20260502234353 | 23 | 279 | 0.0 | 3.2 | 0.00 | 0.03 | 0.03 | 52 | 1011.9 |
| 20260502233850 | 23 | 264 | 1.6 | 1.6 | 0.00 | 0.03 | 0.03 | 51 | 1012.2 |
| 20260502233345 | 23 | 230 | 0.0 | 3.2 | 0.00 | 0.03 | 0.03 | 52 | 1012.1 |
| 20260502232843 | 23 | 270 | 0.0 | 4.8 | 0.00 | 0.03 | 0.03 | 51 | 1012.1 |
| 20260502232339 | 25 | 203 | 0.0 | 4.8 | 0.00 | 0.03 | 0.03 | 50 | 1012.2 |
| 20260502231835 | 25 | 359 | 0.0 | 3.2 | 0.00 | 0.03 | 0.03 | 48 | 1012.3 |
| 20260502231334 | 24 | 154 | 3.2 | 3.2 | 0.00 | 0.03 | 0.03 | 48 | 1012.3 |
| 20260502230831 | 23 | 200 | 0.0 | 1.6 | 0.00 | 0.03 | 0.03 | 55 | 1012.3 |
| 20260502230329 | 23 | 285 | 0.0 | 1.6 | 0.00 | 0.03 | 0.03 | 50 | 1012.3 |
| 20260502225826 | 23 | 276 | 0.0 | 0.0 | 0.00 | 0.03 | 0.03 | 49 | 1012.4 |
| 20260502225323 | 23 | 275 | 1.6 | 1.6 | 0.00 | 0.03 | 0.03 | 51 | 1012.5 |
| 20260502224820 | 23 | 212 | 0.0 | 3.2 | 0.00 | 0.03 | 0.03 | 51 | 1012.7 |
| 20260502224315 | 22 | 244 | 1.6 | 3.2 | 0.00 | 0.03 | 0.03 | 52 | 1012.7 |
| 20260502223813 | 23 | 253 | 1.6 | 3.2 | 0.00 | 0.03 | 0.03 | 52 | 1012.8 |
| 20260502223311 | 23 | 281 | 1.6 | 3.2 | 0.00 | 0.03 | 0.03 | 49 | 1012.8 |
| 20260502222809 | 24 | 278 | 0.0 | 3.2 | 0.00 | 0.03 | 0.03 | 49 | 1013.0 |
| 20260502222306 | 23 | 301 | 0.0 | 0.0 | 0.00 | 0.03 | 0.03 | 55 | 1013.1 |
| 20260502221801 | 23 | 337 | 1.6 | 3.2 | 0.00 | 0.03 | 0.03 | 50 | 1013.1 |
| 20260502221258 | 22 | 262 | 1.6 | 3.2 | 0.00 | 0.03 | 0.03 | 52 | 1013.1 |
| 20260502220755 | 21 | 250 | 0.0 | 3.2 | 0.00 | 0.03 | 0.03 | 59 | 1013.3 |
| 20260502220251 | 21 | 282 | 1.6 | 3.2 | 0.00 | 0.03 | 0.03 | 54 | 1013.4 |
| 20260502215747 | 21 | 260 | 1.6 | 3.2 | 0.00 | 0.03 | 0.03 | 53 | 1013.5 |
| 20260502215245 | 21 | 289 | 1.6 | 3.2 | 0.00 | 0.03 | 0.03 | 54 | 1013.3 |
| 20260502214742 | 21 | 225 | 1.6 | 3.2 | 0.00 | 0.03 | 0.03 | 57 | 1013.5 |
| 20260502214239 | 21 | 294 | 0.0 | 1.6 | 0.00 | 0.03 | 0.03 | 58 | 1013.7 |
| 20260502213736 | 21 | 269 | 0.0 | 3.2 | 0.00 | 0.03 | 0.03 | 58 | 1013.6 |
| 20260502213233 | 21 | 280 | 1.6 | 3.2 | 0.00 | 0.03 | 0.03 | 54 | 1013.8 |
| 20260502212732 | 21 | 269 | 0.0 | 3.2 | 0.00 | 0.03 | 0.03 | 56 | 1013.8 |
| 20260502212230 | 21 | 22 | 0.0 | 3.2 | 0.00 | 0.03 | 0.03 | 55 | 1014.1 |
| 20260502211726 | 20 | 249 | 0.0 | 3.2 | 0.00 | 0.03 | 0.03 | 61 | 1014.0 |
| 20260502211223 | 20 | 208 | 1.6 | 3.2 | 0.00 | 0.03 | 0.03 | 57 | 1014.2 |
| 20260502210720 | 19 | 250 | 0.0 | 1.6 | 0.00 | 0.03 | 0.03 | 60 | 1014.0 |
| 20260502210217 | 19 | 241 | 0.0 | 3.2 | 0.00 | 0.03 | 0.03 | 62 | 1014.2 |
| 20260502205714 | 18 | 22 | 1.6 | 3.2 | 0.00 | 0.03 | 0.03 | 60 | 1014.3 |
| 20260502205210 | 19 | 111 | 1.6 | 3.2 | 0.00 | 0.03 | 0.03 | 61 | 1014.4 |
| 20260502204707 | 19 | 0 | 0.0 | 3.2 | 0.00 | 0.03 | 0.03 | 59 | 1014.5 |
| 20260502204206 | 18 | 261 | 0.0 | 3.2 | 0.00 | 0.03 | 0.03 | 64 | 1014.7 |
| 20260502203703 | 18 | 171 | 1.6 | 3.2 | 0.00 | 0.03 | 0.03 | 61 | 1014.6 |
| 20260502203201 | 18 | 35 | 0.0 | 1.6 | 0.00 | 0.03 | 0.03 | 64 | 1014.7 |
| 20260502202700 | 18 | 292 | 3.2 | 4.8 | 0.00 | 0.03 | 0.03 | 60 | 1014.6 |
| 20260502202159 | 18 | 180 | 0.0 | 3.2 | 0.00 | 0.03 | 0.03 | 66 | 1015.1 |
| 20260502201655 | 18 | 236 | 3.2 | 3.2 | 0.00 | 0.03 | 0.03 | 66 | 1014.7 |
| 20260502201152 | 17 | 167 | 1.6 | 3.2 | 0.00 | 0.03 | 0.03 | 66 | 1015.0 |
| 20260502200648 | 18 | 238 | 3.2 | 6.4 | 0.00 | 0.03 | 0.03 | 65 | 1015.2 |
| 20260502200144 | 18 | 283 | 0.0 | 1.6 | 0.00 | 0.03 | 0.03 | 66 | 1015.2 |
| 20260502195643 | 17 | 279 | 3.2 | 4.8 | 0.00 | 0.03 | 0.03 | 66 | 1015.2 |
| 20260502195139 | 16 | 225 | 1.6 | 1.6 | 0.00 | 0.03 | 0.03 | 69 | 1015.1 |
| 20260502194635 | 17 | 253 | 1.6 | 3.2 | 0.00 | 0.03 | 0.03 | 65 | 1015.2 |
| 20260502194132 | 16 | 264 | 0.0 | 0.0 | 0.00 | 0.03 | 0.03 | 69 | 1015.4 |
| 20260502193629 | 16 | 163 | 0.0 | 1.6 | 0.00 | 0.03 | 0.03 | 72 | 1015.5 |
| 20260502193126 | 16 | 240 | 1.6 | 3.2 | 0.00 | 0.03 | 0.03 | 70 | 1015.3 |
| 20260502192621 | 16 | 100 | 1.6 | 1.6 | 0.00 | 0.03 | 0.03 | 71 | 1015.4 |
| 20260502192119 | 15 | 178 | 1.6 | 1.6 | 0.00 | 0.03 | 0.03 | 72 | 1015.5 |
| 20260502191615 | 15 | 297 | 0.0 | 1.6 | 0.00 | 0.03 | 0.03 | 74 | 1015.8 |
| 20260502191113 | 14 | 88 | 0.0 | 1.6 | 0.00 | 0.03 | 0.03 | 75 | 1015.8 |
| 20260502190611 | 14 | 234 | 1.6 | 3.2 | 0.00 | 0.03 | 0.03 | 73 | 1016.2 |
| 20260502190108 | 15 | 192 | 0.0 | 3.2 | 0.00 | 0.03 | 0.03 | 73 | 1016.3 |
| 20260502185602 | 14 | 237 | 1.6 | 1.6 | 0.00 | 0.03 | 0.03 | 75 | 1016.1 |